createdAt,value
2022-12-22T00:01:38.590Z,99816.81
2022-12-22T00:04:28.623Z,99818.30
2022-12-22T00:07:14.449Z,99817.59
2022-12-22T00:09:59.725Z,99796.92
2022-12-22T00:12:45.639Z,99814.61
2022-12-22T00:15:33.663Z,99810.27
2022-12-22T00:18:20.204Z,99813.73
2022-12-22T00:21:05.519Z,99810.05
2022-12-22T00:23:51.126Z,99801.50
2022-12-22T00:26:37.041Z,99799.95
2022-12-22T00:29:23.271Z,99785.52
2022-12-22T00:32:08.784Z,99780.52
2022-12-22T00:35:03.356Z,99773.31
2022-12-22T00:37:55.054Z,99771.86
2022-12-22T00:40:44.749Z,99771.34
2022-12-22T00:43:30.204Z,99774.47
2022-12-22T00:46:18.183Z,99780.00
2022-12-22T00:49:04.684Z,99774.27
2022-12-22T00:51:51.303Z,99776.85
2022-12-22T00:54:37.745Z,99772.20
2022-12-22T00:57:23.779Z,99780.46
2022-12-22T01:00:10.521Z,99784.09
2022-12-22T01:02:56.202Z,99780.30
2022-12-22T01:05:41.399Z,99774.98
2022-12-22T01:08:29.629Z,99765.97
2022-12-22T01:11:14.994Z,99772.77
2022-12-22T01:14:00.655Z,99787.20
2022-12-22T01:16:45.841Z,99786.05
2022-12-22T01:19:31.033Z,99779.17
2022-12-22T01:22:16.205Z,99777.65
2022-12-22T01:25:03.952Z,99774.73
2022-12-22T01:27:49.428Z,99771.96
2022-12-22T01:30:35.147Z,99774.21
2022-12-22T01:33:20.669Z,99765.40
2022-12-22T01:36:06.102Z,99766.45
2022-12-22T01:38:51.794Z,99769.30
2022-12-22T01:41:39.753Z,99763.17
2022-12-22T01:44:35.901Z,99762.48
2022-12-22T01:47:50.314Z,99760.42
2022-12-22T01:50:52.571Z,99749.96
2022-12-22T01:53:43.057Z,99746.05
2022-12-22T01:56:29.301Z,99744.64
2022-12-22T01:59:19.133Z,99746.45
2022-12-22T02:02:05.174Z,99745.77
2022-12-22T02:04:57.879Z,99745.14
2022-12-22T02:08:09.460Z,99739.91
2022-12-22T02:11:32.236Z,99735.99
2022-12-22T02:14:44.153Z,99744.00
2022-12-22T02:17:45.283Z,99743.55
2022-12-22T02:20:46.312Z,99737.70
2022-12-22T02:23:34.763Z,99740.02
2022-12-22T02:26:38.797Z,99733.98
2022-12-22T02:29:26.022Z,99734.15
2022-12-22T02:32:11.824Z,99729.94
2022-12-22T02:34:57.707Z,99720.08
2022-12-22T02:38:27.694Z,99720.58
2022-12-22T02:41:35.146Z,99725.08
2022-12-22T02:44:26.413Z,99714.02
2022-12-22T02:47:21.422Z,99708.08
2022-12-22T02:50:20.932Z,99703.02
2022-12-22T02:53:08.279Z,99700.70
2022-12-22T02:55:53.992Z,99686.14
2022-12-22T02:58:39.515Z,99686.59
2022-12-22T03:01:25.681Z,99692.98
2022-12-22T03:04:11.315Z,99688.79
2022-12-22T03:06:56.831Z,99687.86
2022-12-22T03:09:42.174Z,99683.59
2022-12-22T03:12:27.611Z,99684.36
2022-12-22T03:15:13.009Z,99681.92
2022-12-22T03:17:58.611Z,99674.05
2022-12-22T03:20:44.132Z,99674.14
2022-12-22T03:23:29.467Z,99672.52
2022-12-22T03:25:56.441Z,99671.96
2022-12-22T03:28:27.082Z,99671.30
2022-12-22T03:31:00.423Z,99671.17
2022-12-22T03:33:28.859Z,99666.34
2022-12-22T03:35:55.901Z,99667.52
2022-12-22T03:38:23.268Z,99669.69
2022-12-22T03:40:50.198Z,99671.60
2022-12-22T03:43:36.403Z,99673.34
2022-12-22T03:46:09.553Z,99668.69
2022-12-22T03:48:36.254Z,99666.61
2022-12-22T03:51:03.193Z,99666.75
2022-12-22T03:53:30.064Z,99666.65
2022-12-22T03:55:57.809Z,99666.23
2022-12-22T03:58:28.603Z,99665.52
2022-12-22T04:01:06.905Z,99663.58
2022-12-22T04:03:34.061Z,99659.51
2022-12-22T04:06:00.934Z,99657.08
2022-12-22T04:08:27.840Z,99658.27
2022-12-22T04:11:12.983Z,99650.46
2022-12-22T04:13:39.789Z,99651.05
2022-12-22T04:16:06.992Z,99648.89
2022-12-22T04:18:33.823Z,99640.95
2022-12-22T04:21:00.568Z,99635.77
2022-12-22T04:23:27.456Z,99635.05
2022-12-22T04:25:54.434Z,99629.99
2022-12-22T04:28:21.517Z,99627.58
2022-12-22T04:30:51.723Z,99625.80
2022-12-22T04:33:18.834Z,99631.23
2022-12-22T04:35:45.732Z,99628.01
2022-12-22T04:38:12.650Z,99625.36
2022-12-22T04:40:40.515Z,99631.45
2022-12-22T04:43:07.326Z,99635.98
2022-12-22T04:45:34.350Z,99629.05
2022-12-22T04:48:01.554Z,99621.23
2022-12-22T04:50:28.376Z,99620.27
2022-12-22T04:52:55.249Z,99621.42
2022-12-22T04:55:22.043Z,99620.03
2022-12-22T04:57:48.868Z,99613.84
2022-12-22T05:00:16.179Z,99616.41
2022-12-22T05:02:43.028Z,99615.32
2022-12-22T05:05:10.009Z,99612.95
2022-12-22T05:07:37.159Z,99613.39
2022-12-22T05:10:05.154Z,99605.74
2022-12-22T05:12:50.244Z,99604.41
2022-12-22T05:15:17.156Z,99603.39
2022-12-22T05:17:43.944Z,99603.00
2022-12-22T05:20:10.982Z,99592.23
2022-12-22T05:22:38.168Z,99594.99
2022-12-22T05:25:05.578Z,99592.08
2022-12-22T05:27:32.505Z,99594.85
2022-12-22T05:29:59.506Z,99591.58
2022-12-22T05:32:26.671Z,99584.30
2022-12-22T05:34:53.388Z,99580.37
2022-12-22T05:37:20.278Z,99575.75
2022-12-22T05:39:47.068Z,99573.05
2022-12-22T05:42:13.879Z,99572.23
2022-12-22T05:44:40.812Z,99571.34
2022-12-22T05:47:08.010Z,99569.20
2022-12-22T05:49:34.906Z,99573.70
2022-12-22T05:52:01.838Z,99573.30
2022-12-22T05:54:28.701Z,99571.23
2022-12-22T05:56:55.562Z,99565.89
2022-12-22T05:59:22.271Z,99561.52
2022-12-22T06:01:49.238Z,99563.01
2022-12-22T06:04:16.315Z,99565.59
2022-12-22T06:06:43.352Z,99560.06
2022-12-22T06:09:10.183Z,99556.48
2022-12-22T06:11:37.004Z,99560.89
2022-12-22T06:14:04.045Z,99555.20
2022-12-22T06:16:31.189Z,99550.64
2022-12-22T06:18:58.204Z,99553.77
2022-12-22T06:21:25.214Z,99552.45
2022-12-22T06:23:54.596Z,99551.16
2022-12-22T06:26:21.474Z,99554.82
2022-12-22T06:28:48.209Z,99539.73
2022-12-22T06:31:15.090Z,99549.64
2022-12-22T06:33:42.020Z,99539.20
2022-12-22T06:36:09.239Z,99546.54
2022-12-22T06:38:36.232Z,99547.61
2022-12-22T06:41:03.914Z,99549.16
2022-12-22T06:43:31.235Z,99543.87
2022-12-22T06:45:58.300Z,99532.31
2022-12-22T06:48:25.605Z,99521.85
2022-12-22T06:50:58.041Z,99520.58
2022-12-22T06:53:26.408Z,99520.34
2022-12-22T06:55:53.277Z,99517.60
2022-12-22T06:58:20.101Z,99516.41
2022-12-22T07:00:49.309Z,99517.88
2022-12-22T07:03:16.453Z,99516.89
2022-12-22T07:05:44.355Z,99510.44
2022-12-22T07:08:11.255Z,99507.63
2022-12-22T07:10:56.533Z,99510.01
2022-12-22T07:13:26.853Z,99494.11
2022-12-22T07:16:02.174Z,99507.30
2022-12-22T07:18:37.439Z,99498.73
2022-12-22T07:21:08.873Z,99494.06
2022-12-22T09:23:51.196Z,99375.82
2022-12-22T09:26:20.843Z,99374.09
2022-12-22T09:28:50.812Z,99367.64
2022-12-22T09:31:23.040Z,99361.38
2022-12-22T09:33:50.753Z,99362.41
2022-12-22T09:36:21.972Z,99355.80
2022-12-22T09:38:48.913Z,99357.17
2022-12-22T09:41:20.056Z,99355.67
2022-12-22T10:55:44.052Z,99279.38
2022-12-22T10:58:10.998Z,99277.13
2022-12-22T11:00:38.491Z,99284.11
2022-12-22T11:03:07.502Z,99286.36
2022-12-22T11:05:34.716Z,99258.96
2022-12-22T11:08:17.715Z,99284.33
2022-12-22T11:11:16.273Z,99281.08
2022-12-22T11:13:51.427Z,99271.85
2022-12-22T11:16:40.121Z,99265.73
2022-12-22T11:19:13.867Z,99265.59
2022-12-22T11:22:02.447Z,99261.42
2022-12-22T11:25:10.899Z,99256.35
2022-12-22T11:27:45.892Z,99250.62
2022-12-22T11:30:21.134Z,99248.14
2022-12-22T11:33:13.308Z,99241.48
2022-12-22T11:36:06.441Z,99239.88
2022-12-22T11:38:54.668Z,99223.89
2022-12-22T11:41:51.606Z,99221.64
2022-12-22T11:45:07.054Z,99216.59
2022-12-22T11:47:40.165Z,99204.51
2022-12-22T11:50:58.746Z,99192.49
2022-12-22T11:53:52.587Z,99190.04
2022-12-22T11:56:26.268Z,99167.17
2022-12-22T11:58:59.243Z,99174.89
2022-12-22T12:01:43.112Z,99172.34
2022-12-22T12:04:16.313Z,99166.83
2022-12-22T12:07:03.701Z,99168.27
2022-12-22T12:09:38.649Z,99167.54
2022-12-22T12:12:11.659Z,99164.80
2022-12-22T12:14:43.694Z,99168.12
2022-12-22T12:17:19.838Z,99159.75
2022-12-22T12:20:05.678Z,99149.18
2022-12-22T12:22:38.515Z,99164.45
2022-12-22T12:25:25.457Z,99172.02
2022-12-22T12:28:14.696Z,99172.48
2022-12-22T12:30:52.373Z,99178.48
2022-12-22T12:33:41.346Z,99159.63
2022-12-22T12:36:14.494Z,99157.83
2022-12-22T12:41:57.800Z,99151.95
2022-12-22T12:44:29.670Z,99147.08
2022-12-22T12:47:06.190Z,99149.52
2022-12-22T12:49:36.382Z,99149.69
2022-12-22T12:52:11.390Z,99143.94
2022-12-22T12:54:43.839Z,99142.21
2022-12-22T12:57:45.987Z,99121.23
2022-12-22T13:00:31.706Z,99123.63
2022-12-22T13:03:01.279Z,99121.11
2022-12-22T13:05:47.170Z,99126.84
2022-12-22T13:08:18.019Z,99129.67
2022-12-22T13:10:49.201Z,99129.51
2022-12-22T13:13:25.321Z,99128.69
2022-12-22T13:16:04.417Z,99131.15
2022-12-22T13:18:34.787Z,99124.21
2022-12-22T13:21:42.491Z,99127.45
2022-12-22T13:24:22.967Z,99113.27
2022-12-22T13:26:47.518Z,99120.36
2022-12-22T13:29:39.589Z,99120.82
2022-12-22T13:32:20.656Z,99117.77
2022-12-22T13:35:33.088Z,99118.33
2022-12-22T13:38:01.434Z,99121.14
2022-12-22T13:40:44.505Z,99117.40
2022-12-22T13:43:40.347Z,99121.09
2022-12-22T13:46:22.622Z,99121.92
2022-12-22T13:49:09.282Z,99121.70
2022-12-22T13:51:42.439Z,99119.62
2022-12-22T13:54:22.878Z,99117.11
2022-12-22T13:56:52.765Z,99119.08
2022-12-22T13:59:54.990Z,99122.06
2022-12-22T14:02:22.351Z,99121.73
2022-12-22T14:05:09.998Z,99122.17
2022-12-22T14:07:37.717Z,99123.73
2022-12-22T14:10:05.889Z,99122.50
2022-12-22T14:12:44.511Z,99113.85
2022-12-22T14:15:17.501Z,99114.13
2022-12-22T14:17:52.297Z,99113.17
2022-12-22T14:20:36.075Z,99109.27
2022-12-22T14:23:10.560Z,99098.70
2022-12-22T14:25:42.142Z,99105.98
2022-12-22T14:28:24.091Z,99107.58
2022-12-22T14:30:55.156Z,99104.99
2022-12-22T14:33:28.331Z,99108.96
2022-12-22T14:36:17.511Z,99108.21
2022-12-22T14:38:47.927Z,99107.89
2022-12-22T14:41:42.933Z,99109.23
2022-12-22T14:44:19.670Z,99110.28
2022-12-22T14:47:06.757Z,99095.89
2022-12-22T14:49:42.887Z,99110.44
2022-12-22T14:52:23.200Z,99111.81
2022-12-22T14:54:53.277Z,99118.69
2022-12-22T14:57:34.902Z,99117.21
2022-12-22T15:00:06.588Z,99120.11
2022-12-22T15:02:40.569Z,99113.70
2022-12-22T15:05:23.792Z,99108.36
2022-12-22T15:08:05.414Z,99114.91
2022-12-22T15:10:41.934Z,99121.29
2022-12-22T15:13:24.524Z,99119.52
2022-12-22T15:15:52.912Z,99120.08
2022-12-22T15:18:26.924Z,99116.92
2022-12-22T15:20:57.167Z,99113.95
2022-12-22T15:23:25.428Z,99114.26
2022-12-22T15:25:53.811Z,99113.23
2022-12-22T15:28:22.263Z,99114.22
2022-12-22T15:30:50.204Z,99111.63
2022-12-22T15:33:19.076Z,99107.67
2022-12-22T15:35:48.212Z,99104.93
2022-12-22T15:38:22.115Z,99099.79
2022-12-22T15:40:51.093Z,99104.70
2022-12-22T15:46:07.501Z,99104.84
2022-12-22T15:48:38.843Z,99103.10
2022-12-22T15:51:14.051Z,99104.57
2022-12-22T15:53:42.280Z,99106.60
2022-12-22T15:56:22.634Z,99103.48
2022-12-22T15:58:50.585Z,99104.77
2022-12-22T16:01:18.454Z,99109.08
2022-12-22T16:03:46.710Z,99108.73
2022-12-22T16:06:17.519Z,99106.42
2022-12-22T16:08:53.033Z,99105.70
2022-12-22T16:11:20.881Z,99098.86
2022-12-22T16:13:51.939Z,99101.95
2022-12-22T16:16:20.845Z,99079.65
2022-12-22T16:18:48.495Z,99096.95
2022-12-22T16:21:20.156Z,99100.91
2022-12-22T16:23:50.896Z,99102.20
2022-12-22T16:26:20.177Z,99098.02
2022-12-22T16:28:48.126Z,99099.00
2022-12-22T16:31:21.864Z,99100.45
2022-12-22T16:33:54.029Z,99103.92
2022-12-22T16:36:25.141Z,99102.27
2022-12-22T16:38:53.477Z,99096.61
2022-12-22T16:41:24.871Z,99094.99
2022-12-22T16:46:39.671Z,99081.88
2022-12-22T16:49:09.477Z,99085.80
2022-12-22T16:51:43.728Z,99081.31
2022-12-22T16:54:14.100Z,99089.02
2022-12-22T16:56:42.989Z,99090.23
2022-12-22T16:59:10.936Z,99090.23
2022-12-22T17:01:52.593Z,99091.95
2022-12-22T17:04:26.193Z,99093.58
2022-12-22T17:06:56.441Z,99093.84
2022-12-22T17:09:49.048Z,99097.85
2022-12-22T17:12:20.721Z,99101.09
2022-12-22T17:20:03.635Z,99104.05
2022-12-22T19:17:28.370Z,99145.79
2022-12-22T19:19:56.436Z,99145.15
2022-12-22T19:22:24.737Z,99149.98
2022-12-22T19:24:56.964Z,99153.41
2022-12-22T19:27:26.474Z,99155.54
2022-12-22T19:30:03.033Z,99152.04
2022-12-22T19:32:40.154Z,99165.98
2022-12-22T19:35:20.979Z,99171.85
2022-12-22T19:37:51.613Z,99175.22
2022-12-22T19:40:22.716Z,99178.36
2022-12-22T19:42:52.954Z,99180.09
2022-12-22T19:45:27.263Z,99177.52
2022-12-22T19:47:57.188Z,99178.45
2022-12-22T19:50:27.474Z,99182.39
2022-12-22T19:52:58.784Z,99182.66
2022-12-22T19:55:37.212Z,99185.63
2022-12-22T19:58:16.196Z,99187.20
2022-12-22T20:00:45.449Z,99186.23
2022-12-22T20:03:19.292Z,99195.13
2022-12-22T20:05:49.203Z,99194.77
2022-12-22T20:08:18.281Z,99196.15
2022-12-22T20:10:46.736Z,99196.95
2022-12-22T20:13:19.064Z,99203.73
2022-12-22T20:15:47.888Z,99208.55
2022-12-22T20:18:23.845Z,99211.95
2022-12-22T20:21:08.306Z,99221.71
2022-12-22T20:23:37.946Z,99226.25
2022-12-22T20:26:14.184Z,99230.33
2022-12-22T20:28:43.764Z,99231.77
2022-12-22T20:31:14.260Z,99244.99
2022-12-22T20:33:42.464Z,99244.58
2022-12-22T20:36:17.612Z,99249.30
2022-12-22T20:38:46.592Z,99251.98
2022-12-22T20:41:14.629Z,99257.40
2022-12-22T20:43:43.117Z,99256.04
2022-12-22T20:46:20.399Z,99258.21
2022-12-22T20:49:04.481Z,99258.23
2022-12-22T20:51:33.786Z,99262.80
2022-12-22T20:54:01.213Z,99268.38
2022-12-22T20:56:39.247Z,99270.64
2022-12-22T20:59:20.608Z,99271.91
2022-12-22T21:01:50.651Z,99272.91
2022-12-22T21:04:20.005Z,99272.92
2022-12-22T21:06:57.150Z,99273.94
2022-12-22T21:09:25.818Z,99276.06
2022-12-22T21:11:53.369Z,99273.67
2022-12-22T21:14:20.880Z,99273.05
2022-12-22T21:16:48.654Z,99283.29
2022-12-22T21:19:18.930Z,99286.63
2022-12-22T21:21:46.984Z,99292.12
2022-12-22T21:24:14.866Z,99292.58
2022-12-22T21:26:47.432Z,99290.79
2022-12-22T21:29:22.304Z,99295.52
2022-12-22T21:31:50.926Z,99295.10
2022-12-22T21:34:23.204Z,99292.95
2022-12-22T21:37:00.065Z,99298.38
2022-12-22T21:39:41.947Z,99298.16
2022-12-22T21:42:18.702Z,99304.10
2022-12-22T21:44:47.679Z,99309.91
2022-12-22T21:47:19.762Z,99303.92
2022-12-22T21:49:49.167Z,99308.91
2022-12-22T21:52:17.197Z,99310.07
2022-12-22T21:54:44.835Z,99310.95
2022-12-22T21:57:18.230Z,99316.81
2022-12-22T21:59:46.064Z,99319.61
2022-12-22T22:02:18.039Z,99323.80
2022-12-22T22:04:52.135Z,99328.33
2022-12-22T22:07:22.723Z,99332.29
2022-12-22T22:09:50.339Z,99339.48
2022-12-22T22:12:33.059Z,99331.08
2022-12-22T22:15:03.520Z,99330.52
2022-12-22T22:17:31.467Z,99332.11
2022-12-22T22:19:59.017Z,99332.30
2022-12-22T22:22:27.227Z,99335.12
2022-12-22T22:24:54.627Z,99331.15
2022-12-22T22:27:22.757Z,99331.35
2022-12-22T22:29:51.288Z,99325.36
2022-12-22T22:32:19.156Z,99326.15
2022-12-22T22:34:47.008Z,99328.86
2022-12-22T22:37:15.676Z,99336.45
2022-12-22T22:39:43.976Z,99339.63
2022-12-22T22:42:12.043Z,99345.36
2022-12-22T22:44:40.587Z,99347.34
2022-12-22T22:47:08.531Z,99347.28
2022-12-22T22:49:35.776Z,99346.46
2022-12-22T22:52:03.288Z,99355.67
2022-12-22T22:54:30.449Z,99358.11
2022-12-22T22:56:58.004Z,99359.36
2022-12-22T22:59:25.020Z,99353.94
2022-12-22T23:01:54.752Z,99345.47
2022-12-22T23:04:21.869Z,99344.91
2022-12-22T23:06:49.085Z,99343.27
2022-12-22T23:09:16.194Z,99339.27
2022-12-22T23:11:43.235Z,99338.69
2022-12-22T23:14:10.130Z,99334.27
2022-12-22T23:16:38.583Z,99328.84
2022-12-22T23:19:06.334Z,99329.84
2022-12-22T23:21:34.296Z,99323.52
2022-12-22T23:24:02.109Z,99319.30
2022-12-22T23:26:29.404Z,99315.57
2022-12-22T23:29:02.616Z,99309.56
2022-12-22T23:31:32.732Z,99303.45
2022-12-22T23:34:00.707Z,99303.92
2022-12-22T23:36:28.762Z,99298.73
2022-12-22T23:38:56.254Z,99300.80
2022-12-22T23:41:23.557Z,99307.91
2022-12-22T23:43:52.501Z,99312.40
2022-12-22T23:46:19.941Z,99313.60
2022-12-22T23:48:52.615Z,99317.98
2022-12-22T23:51:21.467Z,99318.46
2022-12-22T23:53:48.346Z,99318.60
2022-12-22T23:56:15.788Z,99317.76
2022-12-22T23:58:42.830Z,99318.30
